createdAt,value
2023-05-03T00:04:54.741Z,62.60
2023-05-03T00:10:00.176Z,61.70
2023-05-03T00:15:05.225Z,61.80
2023-05-03T00:20:10.128Z,61.80
2023-05-03T00:25:15.599Z,62.10
2023-05-03T00:30:19.995Z,62.20
2023-05-03T00:35:24.346Z,62.40
2023-05-03T00:40:28.900Z,61.90
2023-05-03T00:45:34.691Z,62.00
2023-05-03T00:50:39.987Z,61.90
2023-05-03T00:55:45.895Z,62.00
2023-05-03T01:00:50.037Z,61.90
2023-05-03T01:06:14.268Z,62.00
2023-05-03T01:11:26.956Z,62.30
2023-05-03T01:16:41.551Z,61.90
2023-05-03T01:21:53.205Z,62.20
2023-05-03T01:26:58.404Z,61.90
2023-05-03T01:32:06.394Z,61.90
2023-05-03T01:37:13.182Z,62.00
2023-05-03T01:42:18.086Z,61.90
2023-05-03T01:47:23.842Z,61.90
2023-05-03T01:52:28.367Z,62.80
2023-05-03T01:57:32.932Z,62.10
2023-05-03T02:02:37.028Z,60.80
2023-05-03T02:07:41.401Z,60.10
2023-05-03T02:12:46.081Z,59.80
2023-05-03T02:17:51.574Z,59.50
2023-05-03T02:22:55.649Z,59.20
2023-05-03T02:28:00.145Z,59.10
2023-05-03T02:33:04.589Z,58.90
2023-05-03T02:38:09.092Z,58.90
2023-05-03T02:43:14.026Z,58.40
2023-05-03T02:48:18.777Z,58.20
2023-05-03T02:53:23.425Z,58.10
2023-05-03T02:58:29.301Z,58.20
2023-05-03T03:03:34.294Z,57.70
2023-05-03T03:08:38.703Z,58.20
2023-05-03T03:13:43.644Z,58.10
2023-05-03T03:18:48.312Z,58.50
2023-05-03T03:23:52.843Z,58.80
2023-05-03T03:28:57.388Z,58.50
2023-05-03T03:34:01.720Z,58.50
2023-05-03T03:39:07.089Z,58.60
2023-05-03T03:44:11.743Z,58.60
2023-05-03T03:49:16.177Z,58.20
2023-05-03T03:54:20.528Z,58.20
2023-05-03T03:59:25.593Z,58.30
2023-05-03T04:04:32.154Z,60.50
2023-05-03T04:09:36.830Z,58.90
2023-05-03T04:14:41.296Z,58.80
2023-05-03T04:19:46.316Z,59.00
2023-05-03T04:24:51.070Z,58.90
2023-05-03T04:29:55.400Z,59.40
2023-05-03T04:35:01.990Z,59.00
2023-05-03T04:40:10.153Z,59.00
2023-05-03T04:45:16.091Z,59.20
2023-05-03T04:50:21.060Z,59.40
2023-05-03T04:55:27.024Z,59.50
2023-05-03T05:00:32.092Z,59.70
2023-05-03T05:05:41.432Z,60.00
2023-05-03T05:10:47.420Z,59.90
2023-05-03T05:15:53.920Z,60.00
2023-05-03T05:21:07.660Z,60.00
2023-05-03T05:26:12.757Z,60.60
2023-05-03T05:31:18.191Z,60.10
2023-05-03T05:36:23.537Z,60.00
2023-05-03T05:41:28.190Z,60.00
2023-05-03T05:46:32.583Z,60.10
2023-05-03T05:51:37.487Z,60.10
2023-05-03T05:56:42.023Z,60.00
2023-05-03T06:01:46.923Z,60.10
2023-05-03T06:06:54.868Z,60.60
2023-05-03T06:11:59.238Z,60.10
2023-05-03T06:17:06.453Z,60.10
2023-05-03T06:22:10.495Z,60.10
2023-05-03T06:27:15.016Z,60.10
2023-05-03T06:32:19.757Z,60.20
2023-05-03T06:37:23.907Z,60.00
2023-05-03T06:42:28.565Z,60.00
2023-05-03T06:47:43.570Z,60.00
2023-05-03T06:52:48.187Z,59.80
2023-05-03T06:57:53.546Z,60.00
2023-05-03T07:02:57.771Z,59.90
2023-05-03T07:08:04.188Z,60.30
2023-05-03T07:13:10.054Z,59.40
2023-05-03T07:18:14.437Z,59.10
2023-05-03T07:23:18.926Z,58.60
2023-05-03T07:28:23.833Z,58.10
2023-05-03T07:33:28.018Z,57.80
2023-05-03T07:38:34.630Z,57.80
2023-05-03T07:43:39.034Z,57.90
2023-05-03T07:48:44.306Z,58.30
2023-05-03T07:53:48.370Z,58.30
2023-05-03T07:59:04.557Z,58.50
2023-05-03T08:04:13.462Z,58.70
2023-05-03T08:09:19.519Z,59.00
2023-05-03T08:14:24.339Z,59.00
2023-05-03T08:19:28.775Z,58.60
2023-05-03T08:24:35.569Z,59.80
2023-05-03T08:29:40.526Z,59.30
2023-05-03T08:34:44.756Z,59.50
2023-05-03T08:39:49.604Z,60.20
2023-05-03T08:44:55.296Z,60.00
2023-05-03T08:50:00.279Z,60.00
2023-05-03T08:55:09.148Z,60.10
2023-05-03T09:00:14.669Z,60.00
2023-05-03T09:05:19.705Z,60.00
2023-05-03T09:10:27.421Z,59.30
2023-05-03T09:15:33.189Z,59.80
2023-05-03T09:20:40.285Z,59.10
2023-05-03T09:25:54.553Z,58.10
2023-05-03T09:31:07.813Z,59.00
2023-05-03T09:36:12.063Z,58.80
2023-05-03T09:41:17.324Z,58.80
2023-05-03T09:46:21.947Z,58.50
2023-05-03T09:51:27.796Z,58.30
2023-05-03T09:56:32.553Z,59.10
2023-05-03T10:01:37.072Z,58.30
2023-05-03T10:06:45.156Z,59.10
2023-05-03T10:11:53.645Z,58.90
2023-05-03T10:17:04.955Z,59.30
2023-05-03T10:22:11.643Z,59.00
2023-05-03T10:27:17.731Z,58.00
2023-05-03T10:32:30.553Z,58.40
2023-05-03T10:37:38.856Z,58.50
2023-05-03T10:42:56.616Z,58.50
2023-05-03T10:48:12.947Z,58.20
2023-05-03T10:53:37.956Z,58.30
2023-05-03T10:58:47.431Z,58.50
2023-05-03T11:04:11.848Z,58.70
2023-05-03T11:09:18.219Z,58.20
2023-05-03T11:14:22.440Z,57.50
2023-05-03T11:19:52.198Z,57.30
2023-05-03T11:24:57.492Z,56.60
2023-05-03T11:30:01.643Z,55.30
2023-05-03T11:35:09.794Z,54.80
2023-05-03T11:40:17.736Z,54.90
2023-05-03T11:45:30.324Z,54.90
2023-05-03T11:50:54.722Z,55.00
2023-05-03T11:55:58.758Z,55.10
2023-05-03T12:01:04.229Z,55.00
2023-05-03T12:06:09.971Z,54.80
2023-05-03T12:11:15.302Z,55.00
2023-05-03T12:16:23.316Z,55.20
2023-05-03T12:26:57.578Z,54.80
2023-05-03T12:32:04.340Z,54.80
2023-05-03T12:37:11.770Z,54.60
2023-05-03T12:42:16.443Z,54.50
2023-05-03T12:47:27.925Z,54.50
2023-05-03T12:52:37.822Z,54.70
2023-05-03T12:57:45.753Z,54.30
2023-05-03T13:08:00.732Z,54.90
2023-05-03T13:13:11.720Z,54.10
2023-05-03T13:18:16.833Z,54.20
2023-05-03T13:23:21.314Z,54.00
2023-05-03T13:28:25.455Z,54.20
2023-05-03T13:33:30.000Z,53.90
2023-05-03T13:38:34.426Z,54.10
2023-05-03T13:43:38.355Z,53.60
2023-05-03T13:48:43.378Z,53.80
2023-05-03T13:53:48.077Z,54.10
2023-05-03T13:58:52.453Z,54.80
2023-05-03T14:03:56.789Z,55.40
2023-05-03T14:09:02.425Z,55.00
2023-05-03T14:14:07.350Z,56.20
2023-05-03T14:19:12.348Z,56.00
2023-05-03T14:24:17.482Z,55.30
2023-05-03T14:29:23.464Z,55.30
2023-05-03T14:34:29.446Z,55.50
2023-05-03T14:39:33.988Z,56.40
2023-05-03T14:44:38.259Z,57.20
2023-05-03T14:49:42.461Z,56.80
2023-05-03T14:54:47.448Z,56.80
2023-05-03T14:59:52.924Z,56.90
2023-05-03T15:04:57.331Z,56.80
2023-05-03T15:10:06.670Z,56.80
2023-05-03T15:15:12.602Z,56.30
2023-05-03T15:20:17.203Z,55.60
2023-05-03T15:25:21.643Z,55.30
2023-05-03T15:30:26.212Z,55.60
2023-05-03T15:35:31.588Z,54.20
2023-05-03T15:40:36.527Z,54.50
2023-05-03T15:45:40.638Z,53.90
2023-05-03T15:50:45.516Z,54.40
2023-05-03T15:55:50.356Z,54.50
2023-05-03T16:00:56.118Z,54.50
2023-05-03T16:06:02.110Z,54.50
2023-05-03T16:11:08.521Z,50.00
2023-05-03T16:16:13.926Z,50.50
2023-05-03T16:21:18.700Z,51.50
2023-05-03T16:26:23.143Z,50.60
2023-05-03T16:31:30.597Z,51.20
2023-05-03T16:36:43.822Z,50.90
2023-05-03T16:41:51.053Z,49.80
2023-05-03T16:46:55.949Z,49.40
2023-05-03T16:52:00.189Z,49.20
2023-05-03T16:57:05.217Z,48.20
2023-05-03T17:02:09.464Z,47.80
2023-05-03T17:07:16.149Z,48.50
2023-05-03T17:12:21.925Z,48.50
2023-05-03T17:17:26.413Z,48.60
2023-05-03T17:22:30.624Z,49.50
2023-05-03T17:27:34.964Z,49.80
2023-05-03T17:32:39.468Z,49.70
2023-05-03T17:37:46.298Z,49.90
2023-05-03T17:42:51.052Z,50.60
2023-05-03T17:47:55.692Z,50.80
2023-05-03T17:53:01.156Z,51.30
2023-05-03T17:58:06.876Z,51.00
2023-05-03T18:03:13.638Z,50.80
2023-05-03T18:08:19.851Z,51.00
2023-05-03T18:13:28.598Z,52.10
2023-05-03T18:18:32.769Z,51.60
2023-05-03T18:23:37.333Z,51.80
2023-05-03T18:28:43.574Z,51.60
2023-05-03T18:33:53.166Z,52.00
2023-05-03T18:38:58.705Z,52.10
2023-05-03T18:44:10.673Z,51.60
2023-05-03T18:49:19.753Z,52.00
2023-05-03T18:54:24.956Z,52.90
2023-05-03T18:59:32.684Z,52.80
2023-05-03T19:04:38.739Z,52.40
2023-05-03T19:09:44.548Z,51.90
2023-05-03T19:14:51.580Z,52.00
2023-05-03T19:19:56.169Z,51.80
2023-05-03T19:25:04.190Z,52.00
2023-05-03T19:30:12.185Z,50.10
2023-05-03T19:35:20.156Z,49.70
2023-05-03T19:40:26.677Z,51.20
2023-05-03T19:45:34.116Z,51.80
2023-05-03T19:50:39.992Z,52.60
2023-05-03T19:56:04.321Z,52.80
2023-05-03T20:01:09.581Z,52.80
2023-05-03T20:06:15.215Z,53.40
2023-05-03T20:11:20.882Z,52.70
2023-05-03T20:16:34.633Z,52.90
2023-05-03T20:21:39.234Z,52.30
2023-05-03T20:26:48.261Z,52.20
2023-05-03T20:31:54.079Z,52.40
2023-05-03T20:36:58.789Z,52.70
2023-05-03T20:42:04.172Z,52.60
2023-05-03T20:47:08.379Z,52.70
2023-05-03T20:52:13.331Z,53.10
2023-05-03T20:57:17.473Z,53.20
2023-05-03T21:02:23.096Z,53.00
2023-05-03T21:07:29.328Z,53.60
2023-05-03T21:12:33.829Z,53.60
2023-05-03T21:17:38.576Z,53.40
2023-05-03T21:22:43.101Z,53.80
2023-05-03T21:27:47.930Z,54.60
2023-05-03T21:32:54.755Z,54.20
2023-05-03T21:38:00.441Z,57.00
2023-05-03T21:43:06.559Z,58.50
2023-05-03T21:48:11.329Z,58.40
2023-05-03T21:53:17.191Z,58.60
2023-05-03T21:58:21.924Z,58.80
2023-05-03T22:03:27.007Z,58.90
2023-05-03T22:08:31.642Z,59.10
2023-05-03T22:13:50.284Z,58.90
2023-05-03T22:19:02.814Z,59.20
2023-05-03T22:24:09.514Z,59.10
2023-05-03T22:29:14.091Z,59.30
2023-05-03T22:34:19.948Z,59.50
2023-05-03T22:39:25.405Z,59.40
2023-05-03T22:44:29.738Z,59.40
2023-05-03T22:49:33.881Z,60.10
2023-05-03T22:54:39.323Z,59.70
2023-05-03T22:59:47.570Z,59.50
2023-05-03T23:04:51.712Z,59.30
2023-05-03T23:10:04.304Z,59.10
2023-05-03T23:15:09.034Z,58.90
2023-05-03T23:20:13.750Z,58.80
2023-05-03T23:25:18.188Z,58.80
2023-05-03T23:30:22.839Z,58.90
2023-05-03T23:35:27.579Z,58.70
2023-05-03T23:40:32.448Z,59.00
2023-05-03T23:45:38.064Z,58.60
2023-05-03T23:50:42.638Z,58.80
2023-05-03T23:55:46.887Z,58.80
